Time;durP1;ratioP1;P1;durP2;ratioP2;P2;SDS_P1;SDS_P2;PMS_P1;PMS_P2;Temp;Humidity;BMP_temperature;BMP_pressure;BME280_temperature;BME280_humidity;BME280_pressure;Samples;Min_cycle;Max_cycle;Signal;HPM_P1;HPM_P2
2023/04/26 00:01:41;;;;;;;14.10;5.07;;;2.40;91.60;;;;;;6184004;22;87800;-80
2023/04/26 00:04:07;;;;;;;13.57;4.97;;;2.40;91.80;;;;;;6160122;22;89963;-80
2023/04/26 00:06:34;;;;;;;16.70;5.57;;;2.30;91.90;;;;;;6158793;22;91590;-84
2023/04/26 00:08:59;;;;;;;11.38;5.97;;;2.30;92.20;;;;;;6159316;22;91978;-81
2023/04/26 00:11:25;;;;;;;17.38;5.50;;;2.30;92.10;;;;;;6186173;22;87692;-81
2023/04/26 00:13:51;;;;;;;10.65;5.53;;;2.30;91.90;;;;;;6160021;22;90091;-82
2023/04/26 00:16:21;;;;;;;8.57;5.30;;;2.20;91.90;;;;;;6185348;22;88467;-81
2023/04/26 00:18:48;;;;;;;10.73;5.15;;;2.20;91.80;;;;;;6185557;22;88298;-83
2023/04/26 00:21:13;;;;;;;14.10;4.50;;;2.20;91.70;;;;;;6185710;22;87287;-80
2023/04/26 00:23:39;;;;;;;8.35;4.45;;;2.20;91.80;;;;;;6159736;22;88748;-81
2023/04/26 00:26:05;;;;;;;15.75;6.13;;;2.20;91.60;;;;;;6184998;22;88152;-81
2023/04/26 00:28:30;;;;;;;14.70;5.68;;;2.10;91.90;;;;;;6159358;22;90696;-83
2023/04/26 00:30:56;;;;;;;11.95;4.38;;;2.10;92.00;;;;;;6185118;22;88555;-80
2023/04/26 00:40:06;;;;;;;13.02;5.40;;;1.90;92.50;;;;;;6217686;22;91381;-81
2023/04/26 00:42:32;;;;;;;10.43;5.05;;;1.90;93.50;;;;;;6218494;22;87483;-81
2023/04/26 00:44:57;;;;;;;10.95;4.30;;;1.90;93.50;;;;;;6216096;22;89784;-83
2023/04/26 00:47:28;;;;;;;7.38;4.30;;;1.90;92.70;;;;;;6218644;22;88205;-86
2023/04/26 00:49:54;;;;;;;15.15;6.13;;;1.90;92.50;;;;;;6184128;22;90246;-80
2023/04/26 00:52:21;;;;;;;14.60;5.85;;;1.90;92.40;;;;;;6160826;22;87713;-79
2023/04/26 00:54:48;;;;;;;11.60;5.38;;;1.80;92.90;;;;;;6093959;23;89147;-80
2023/04/26 00:57:14;;;;;;;13.43;5.25;;;1.80;93.10;;;;;;6094215;23;91209;-80
2023/04/26 00:59:40;;;;;;;12.80;5.63;;;1.70;93.00;;;;;;6093982;23;89220;-83
2023/04/26 01:02:06;;;;;;;7.47;4.88;;;1.70;93.30;;;;;;6094959;23;87311;-82
2023/04/26 01:04:32;;;;;;;14.68;4.90;;;1.70;93.00;;;;;;6094627;23;87355;-83
2023/04/26 01:07:00;;;;;;;8.60;4.93;;;1.60;92.70;;;;;;6095638;23;87766;-88
2023/04/26 01:09:28;;;;;;;19.50;7.30;;;1.60;92.70;;;;;;6094268;23;87646;-81
2023/04/26 01:11:57;;;;;;;12.88;5.22;;;1.60;92.70;;;;;;6094774;23;87537;-82
2023/04/26 01:14:23;;;;;;;9.80;5.47;;;1.50;92.60;;;;;;6094830;23;89241;-84
2023/04/26 01:16:49;;;;;;;10.63;5.65;;;1.50;92.90;;;;;;6094151;23;90548;-84
2023/04/26 01:19:15;;;;;;;16.23;6.15;;;1.50;93.30;;;;;;6095223;23;90249;-80
2023/04/26 01:21:42;;;;;;;13.45;6.05;;;1.40;93.60;;;;;;6117562;22;88034;-82
2023/04/26 01:34:13;;;;;;;16.15;5.93;;;1.40;94.30;;;;;;6217192;22;87526;-82
2023/04/26 01:36:39;;;;;;;9.82;6.30;;;1.40;94.20;;;;;;6218295;22;87326;-86
2023/04/26 01:39:06;;;;;;;11.90;5.53;;;1.40;94.20;;;;;;6215724;22;92015;-87
2023/04/26 01:41:32;;;;;;;9.38;5.25;;;1.40;94.10;;;;;;6216738;22;89251;-83
2023/04/26 01:43:58;;;;;;;16.70;5.60;;;1.40;93.90;;;;;;6216675;22;87289;-79
2023/04/26 01:46:24;;;;;;;11.30;5.03;;;1.30;93.70;;;;;;6217342;22;90502;-81
2023/04/26 01:48:50;;;;;;;11.63;5.25;;;1.30;93.70;;;;;;6215790;22;90919;-82
2023/04/26 01:54:44;;;;;;;12.13;4.72;;;1.30;93.50;;;;;;6218147;22;87549;-87
2023/04/26 01:57:09;;;;;;;13.77;5.10;;;1.30;93.30;;;;;;6216557;22;89944;-87
2023/04/26 01:59:38;;;;;;;11.52;5.03;;;1.20;93.20;;;;;;6219319;22;90146;-85
2023/04/26 02:02:04;;;;;;;10.70;5.72;;;1.20;93.20;;;;;;6217522;22;91001;-84
2023/04/26 02:04:29;;;;;;;10.13;5.75;;;1.20;93.70;;;;;;6219483;22;87121;-83
2023/04/26 02:06:56;;;;;;;15.68;6.03;;;1.10;93.70;;;;;;6218199;22;94653;-87
2023/04/26 02:09:21;;;;;;;12.82;6.43;;;1.10;93.80;;;;;;6219461;22;88051;-86
2023/04/26 02:11:47;;;;;;;8.40;4.95;;;1.00;93.70;;;;;;6217770;22;89519;-88
2023/04/26 02:14:13;;;;;;;11.15;4.57;;;1.00;94.00;;;;;;6217876;22;88326;-85
2023/04/26 02:16:39;;;;;;;9.85;5.28;;;1.00;93.70;;;;;;6217777;22;89719;-82
2023/04/26 02:19:09;;;;;;;8.90;5.35;;;1.00;93.50;;;;;;6218920;22;91380;-85
2023/04/26 02:21:56;;;;;;;12.73;6.10;;;1.00;93.60;;;;;;6218982;22;88108;-82
2023/04/26 02:24:23;;;;;;;12.02;5.22;;;1.00;93.90;;;;;;6218151;22;87416;-84
2023/04/26 02:26:49;;;;;;;10.10;5.50;;;0.90;93.60;;;;;;6219297;22;87793;-83
2023/04/26 02:29:15;;;;;;;8.88;4.80;;;0.90;93.60;;;;;;6217092;22;90659;-88
2023/04/26 02:31:41;;;;;;;10.82;5.32;;;0.90;93.50;;;;;;6217642;22;89907;-84
2023/04/26 02:34:07;;;;;;;12.70;5.03;;;0.80;93.80;;;;;;6218951;22;87031;-86
2023/04/26 02:36:33;;;;;;;10.77;5.72;;;0.80;93.70;;;;;;6217137;22;89015;-83
2023/04/26 02:38:59;;;;;;;10.13;5.20;;;0.80;93.40;;;;;;6216617;22;91860;-88
2023/04/26 03:08:19;;;;;;;13.55;5.22;;;0.50;94.00;;;;;;6216697;22;87643;-84
2023/04/26 03:10:45;;;;;;;12.95;6.03;;;0.40;93.80;;;;;;6218237;22;88427;-85
2023/04/26 03:13:11;;;;;;;14.40;6.32;;;0.40;94.50;;;;;;6218345;22;88948;-87
2023/04/26 03:15:36;;;;;;;9.32;5.53;;;0.40;94.50;;;;;;6217239;22;91337;-86
2023/04/26 03:18:02;;;;;;;10.57;5.22;;;0.40;94.50;;;;;;6217483;22;90818;-84
2023/04/26 03:20:28;;;;;;;12.13;5.22;;;0.40;94.40;;;;;;6217770;22;87123;-87
2023/04/26 03:22:53;;;;;;;10.52;6.18;;;0.40;94.50;;;;;;6217085;22;90501;-83
2023/04/26 03:25:37;;;;;;;23.52;8.80;;;0.40;94.60;;;;;;6218222;22;90144;-86
2023/04/26 03:28:03;;;;;;;14.27;8.20;;;0.40;94.60;;;;;;6218255;22;94158;-87
2023/04/26 03:30:29;;;;;;;16.25;10.05;;;0.40;94.30;;;;;;6217170;22;87489;-87
2023/04/26 03:32:55;;;;;;;17.48;10.20;;;0.40;94.00;;;;;;6216323;22;88858;-85
2023/04/26 03:35:20;;;;;;;16.08;8.90;;;0.40;93.90;;;;;;6216136;22;91824;-82
2023/04/26 03:37:46;;;;;;;20.40;10.38;;;0.40;93.80;;;;;;6217617;22;90833;-83
2023/04/26 03:40:12;;;;;;;18.45;10.52;;;0.40;93.60;;;;;;6218321;22;87318;-86
2023/04/26 03:42:38;;;;;;;20.55;11.57;;;0.40;93.70;;;;;;6216455;22;88580;-86
2023/04/26 03:45:05;;;;;;;22.42;14.35;;;0.40;93.70;;;;;;6216489;22;90273;-87
2023/04/26 03:47:30;;;;;;;21.73;14.60;;;0.40;94.00;;;;;;6215974;22;90687;-88
2023/04/26 03:49:57;;;;;;;28.45;16.38;;;0.40;94.30;;;;;;6218268;22;86988;-85
2023/04/26 03:52:23;;;;;;;29.42;15.80;;;0.40;94.20;;;;;;6218300;22;89115;-87
2023/04/26 03:54:48;;;;;;;25.52;16.40;;;0.40;94.50;;;;;;6216440;22;90366;-88
2023/04/26 04:00:37;;;;;;;42.28;19.98;;;0.40;94.10;;;;;;6217193;22;88429;-86
2023/04/26 04:03:03;;;;;;;37.85;21.77;;;0.40;94.10;;;;;;6217813;22;87429;-83
2023/04/26 04:05:28;;;;;;;37.28;27.20;;;0.40;94.20;;;;;;6215817;22;91122;-85
2023/04/26 04:07:55;;;;;;;47.85;29.45;;;0.30;94.70;;;;;;6215736;22;89883;-88
2023/04/26 04:10:22;;;;;;;38.25;26.55;;;0.30;94.70;;;;;;6217417;22;87287;-85
2023/04/26 04:20:11;;;;;;;13.27;7.72;;;0.30;95.00;;;;;;6213015;22;90400;-88
2023/04/26 04:22:40;;;;;;;18.45;8.20;;;0.30;95.00;;;;;;6218999;22;87277;-86
2023/04/26 04:25:09;;;;;;;14.07;7.50;;;0.30;94.80;;;;;;6217897;22;90065;-88
2023/04/26 04:27:36;;;;;;;13.05;7.70;;;0.30;94.70;;;;;;6217667;22;89336;-85
2023/04/26 04:30:03;;;;;;;15.27;7.45;;;0.30;94.70;;;;;;6216732;22;90486;-81
2023/04/26 04:32:31;;;;;;;12.73;7.28;;;0.30;94.80;;;;;;6216868;22;87344;-86
2023/04/26 04:34:57;;;;;;;13.60;7.22;;;0.30;94.80;;;;;;6217121;22;88708;-87
2023/04/26 04:37:24;;;;;;;15.30;7.30;;;0.30;94.80;;;;;;6217741;22;91321;-85
2023/04/26 04:40:08;;;;;;;11.25;6.78;;;0.30;94.90;;;;;;6216983;22;89682;-86
2023/04/26 04:42:34;;;;;;;15.05;7.80;;;0.30;94.90;;;;;;6217028;22;87031;-87
2023/04/26 04:45:00;;;;;;;15.20;7.13;;;0.40;94.80;;;;;;6218330;22;87306;-86
2023/04/26 04:47:26;;;;;;;13.30;6.93;;;0.30;94.60;;;;;;6216835;22;89979;-84
2023/04/26 04:49:52;;;;;;;15.45;7.88;;;0.40;94.60;;;;;;6216791;22;90872;-89
2023/04/26 04:52:20;;;;;;;15.15;8.05;;;0.30;94.90;;;;;;6218889;22;87999;-83
2023/04/26 04:54:47;;;;;;;16.42;7.80;;;0.40;95.30;;;;;;6215077;22;88848;-83
2023/04/26 04:57:12;;;;;;;15.25;7.85;;;0.40;95.00;;;;;;6215210;22;87725;-86
2023/04/26 04:59:38;;;;;;;14.75;7.70;;;0.50;95.00;;;;;;6215502;22;87276;-88
2023/04/26 05:02:04;;;;;;;13.40;8.40;;;0.50;94.80;;;;;;6214398;22;87480;-84
2023/04/26 05:04:32;;;;;;;16.80;8.30;;;0.50;94.80;;;;;;6213734;22;88339;-85
2023/04/26 05:06:59;;;;;;;15.60;9.48;;;0.50;94.70;;;;;;6214554;22;94395;-86
2023/04/26 05:09:25;;;;;;;22.83;12.07;;;0.50;94.50;;;;;;6217648;22;87966;-81
2023/04/26 05:11:51;;;;;;;26.90;15.85;;;0.60;94.60;;;;;;6217203;22;87591;-83
2023/04/26 05:14:16;;;;;;;27.50;17.95;;;0.60;94.80;;;;;;6215655;22;89436;-85
2023/04/26 05:16:42;;;;;;;30.40;18.35;;;0.70;94.70;;;;;;6214719;22;91501;-86
2023/04/26 05:19:08;;;;;;;27.20;16.35;;;0.70;94.60;;;;;;6216006;22;91360;-84
2023/04/26 05:21:34;;;;;;;26.83;13.48;;;0.70;94.80;;;;;;6215234;22;87060;-81
2023/04/26 05:24:00;;;;;;;16.58;10.07;;;0.80;94.90;;;;;;6215415;22;89780;-87
2023/04/26 05:26:25;;;;;;;23.02;10.32;;;0.90;95.20;;;;;;6215260;22;90898;-86
2023/04/26 05:28:51;;;;;;;18.40;9.00;;;0.90;95.00;;;;;;6215277;22;89493;-85
2023/04/26 05:31:16;;;;;;;19.75;10.00;;;1.00;95.10;;;;;;6218988;22;87375;-85
2023/04/26 05:33:42;;;;;;;26.77;15.50;;;1.10;94.90;;;;;;6217227;22;90364;-86
2023/04/26 05:39:59;;;;;;;26.67;15.02;;;1.20;95.10;;;;;;6217751;22;91601;-81
2023/04/26 05:42:25;;;;;;;37.40;17.95;;;1.40;94.90;;;;;;6216011;22;88355;-84
2023/04/26 05:44:55;;;;;;;35.13;18.65;;;1.50;94.90;;;;;;6217903;22;87777;-80
2023/04/26 05:47:21;;;;;;;35.13;17.52;;;1.60;95.00;;;;;;6217725;22;88196;-82
2023/04/26 05:49:46;;;;;;;29.38;16.83;;;1.70;94.80;;;;;;6217228;22;88711;-82
2023/04/26 05:52:12;;;;;;;33.90;17.13;;;1.80;94.80;;;;;;6218473;22;87129;-81
2023/04/26 05:54:38;;;;;;;32.25;15.88;;;2.00;94.80;;;;;;6217274;22;87756;-83
2023/04/26 05:57:03;;;;;;;28.30;14.23;;;2.10;94.80;;;;;;6215869;22;90653;-81
2023/04/26 05:59:31;;;;;;;26.92;13.82;;;2.20;94.70;;;;;;6215917;22;90340;-77
2023/04/26 06:01:57;;;;;;;21.83;12.93;;;2.30;94.50;;;;;;6217161;22;86866;-88
2023/04/26 06:04:23;;;;;;;23.45;13.70;;;2.50;94.50;;;;;;6218557;22;89159;-93
2023/04/26 06:06:49;;;;;;;29.55;14.32;;;2.60;94.40;;;;;;6190651;22;91017;-79
2023/04/26 06:09:15;;;;;;;22.52;13.70;;;2.80;93.90;;;;;;6216465;22;89760;-80
2023/04/26 06:11:40;;;;;;;27.52;14.60;;;2.90;93.70;;;;;;6216795;22;87514;-81
2023/04/26 06:14:06;;;;;;;32.53;15.93;;;3.10;93.80;;;;;;6217425;22;87438;-79
2023/04/26 06:23:55;;;;;;;36.83;16.55;;;3.60;92.90;;;;;;6208066;22;88365;-78
2023/04/26 06:26:21;;;;;;;37.97;17.80;;;3.80;92.50;;;;;;6216913;22;87081;-79
2023/04/26 06:28:46;;;;;;;31.63;16.77;;;4.10;92.40;;;;;;6214630;22;91538;-80
2023/04/26 06:31:12;;;;;;;28.25;16.73;;;4.20;91.10;;;;;;6215784;22;88675;-78
2023/04/26 06:33:38;;;;;;;39.67;17.13;;;4.40;90.80;;;;;;6214340;22;88531;-79
2023/04/26 06:36:04;;;;;;;25.17;15.27;;;4.60;90.90;;;;;;6216295;22;87326;-78
2023/04/26 06:38:29;;;;;;;30.73;16.42;;;4.70;90.50;;;;;;6215813;22;88438;-79
2023/04/26 06:40:55;;;;;;;29.48;16.33;;;4.90;90.60;;;;;;6215163;22;89069;-80
2023/04/26 06:43:21;;;;;;;29.48;17.55;;;5.10;90.20;;;;;;6216379;22;86972;-82
2023/04/26 06:45:48;;;;;;;28.88;16.20;;;5.30;90.20;;;;;;6214769;22;90571;-80
2023/04/26 06:48:26;;;;;;;36.35;16.83;;;5.50;89.20;;;;;;6214886;22;91228;-79
2023/04/26 06:50:52;;;;;;;34.50;17.70;;;5.60;89.50;;;;;;6216870;22;87414;-78
2023/04/26 06:53:17;;;;;;;34.42;19.77;;;5.90;88.30;;;;;;6216433;22;87667;-82
2023/04/26 06:55:43;;;;;;;36.72;20.13;;;5.90;86.70;;;;;;6214617;22;89326;-77
2023/04/26 06:58:09;;;;;;;39.60;21.17;;;6.00;87.10;;;;;;6217577;22;89390;-81
2023/04/26 07:24:08;;;;;;;24.70;14.82;;;7.30;84.90;;;;;;6199334;22;87161;-77
2023/04/26 07:26:35;;;;;;;30.65;15.02;;;7.40;80.50;;;;;;6215665;22;88650;-78
2023/04/26 07:29:02;;;;;;;26.42;14.63;;;7.50;82.10;;;;;;6215822;22;88322;-78
2023/04/26 07:31:30;;;;;;;27.33;14.35;;;7.60;82.50;;;;;;6216870;22;87174;-78
2023/04/26 07:33:56;;;;;;;22.50;11.07;;;7.70;84.30;;;;;;6214389;22;94412;-78
2023/04/26 07:36:31;;;;;;;23.73;10.85;;;7.90;77.50;;;;;;6216046;22;88634;-78
2023/04/26 07:38:57;;;;;;;20.13;11.65;;;7.90;76.10;;;;;;6215951;22;87499;-78
2023/04/26 07:41:22;;;;;;;24.10;11.55;;;7.90;76.60;;;;;;6215520;22;87390;-78
2023/04/26 07:43:48;;;;;;;25.50;12.25;;;8.00;75.60;;;;;;6215519;22;88420;-78
2023/04/26 07:46:20;;;;;;;20.00;10.40;;;8.00;76.50;;;;;;6217989;22;88690;-79
2023/04/26 07:49:06;;;;;;;30.95;10.30;;;8.00;75.90;;;;;;6083453;22;87925;-77
2023/04/26 07:51:32;;;;;;;18.55;9.27;;;8.00;73.90;;;;;;6216609;22;87419;-77
2023/04/26 07:54:00;;;;;;;18.92;9.13;;;8.10;73.50;;;;;;6216210;22;89449;-77
2023/04/26 07:56:26;;;;;;;22.15;9.95;;;8.20;74.10;;;;;;6221223;22;88656;-76
2023/04/26 07:58:52;;;;;;;23.08;11.23;;;8.30;73.80;;;;;;6217288;22;87528;-78
2023/04/26 08:01:17;;;;;;;18.67;10.00;;;8.50;73.90;;;;;;6190381;22;89070;-78
2023/04/26 08:03:43;;;;;;;21.63;9.75;;;8.70;72.30;;;;;;6218431;22;88548;-77
2023/04/26 08:06:09;;;;;;;19.80;9.98;;;8.90;70.60;;;;;;6152286;22;89211;-78
2023/04/26 08:08:41;;;;;;;18.85;8.68;;;8.90;70.80;;;;;;6152185;22;87608;-78
2023/04/26 08:11:08;;;;;;;16.02;7.30;;;9.20;74.20;;;;;;6154022;22;87119;-77
2023/04/26 08:13:34;;;;;;;15.68;7.22;;;9.50;69.00;;;;;;6153215;22;89000;-77
2023/04/26 08:16:00;;;;;;;16.30;7.57;;;9.60;68.60;;;;;;6093818;23;87693;-77
2023/04/26 08:28:30;;;;;;;16.55;4.20;;;10.30;66.20;;;;;;6092480;23;91999;-79
2023/04/26 08:30:57;;;;;;;10.32;4.10;;;10.70;67.60;;;;;;6094399;23;87627;-79
2023/04/26 08:33:22;;;;;;;12.60;4.28;;;11.00;66.00;;;;;;6093226;23;87868;-78
2023/04/26 08:35:48;;;;;;;7.53;2.88;;;11.20;61.70;;;;;;6092839;23;88501;-78
2023/04/26 08:45:04;;;;;;;10.40;3.63;;;11.50;55.60;;;;;;6152663;22;87503;-77
2023/04/26 08:48:02;;;;;;;10.95;3.92;;;11.70;62.20;;;;;;6177678;22;92513;-77
2023/04/26 08:50:32;;;;;;;13.40;2.97;;;12.00;58.50;;;;;;6215662;22;88417;-78
2023/04/26 08:52:57;;;;;;;8.77;3.75;;;12.00;54.70;;;;;;6217689;22;87770;-79
2023/04/26 09:08:53;;;;;;;9.35;2.88;;;12.20;58.80;;;;;;6186323;22;86723;-78
2023/04/26 09:11:19;;;;;;;8.20;2.75;;;12.60;61.20;;;;;;6186502;22;88677;-77
2023/04/26 09:13:45;;;;;;;12.82;3.58;;;12.90;54.80;;;;;;6185697;22;87808;-78
2023/04/26 09:16:10;;;;;;;11.48;3.50;;;13.00;55.80;;;;;;6189381;22;88368;-77
2023/04/26 09:18:48;;;;;;;13.85;3.10;;;13.00;54.10;;;;;;6186283;22;87394;-78
2023/04/26 09:21:17;;;;;;;6.68;3.05;;;13.00;57.50;;;;;;6184684;22;88476;-77
2023/04/26 09:24:03;;;;;;;9.07;2.88;;;13.10;54.30;;;;;;6185288;22;88706;-77
2023/04/26 09:26:29;;;;;;;9.95;2.80;;;13.20;53.30;;;;;;6185583;22;87587;-77
2023/04/26 09:29:16;;;;;;;5.85;2.88;;;13.20;55.60;;;;;;6185586;22;87783;-77
2023/04/26 09:31:44;;;;;;;9.75;2.53;;;13.30;51.80;;;;;;6185531;22;87732;-77
2023/04/26 09:41:13;;;;;;;6.82;2.55;;;14.20;53.70;;;;;;6185438;22;87281;-77
2023/04/26 09:43:39;;;;;;;8.82;2.55;;;14.30;43.50;;;;;;6184455;22;89594;-77
2023/04/26 09:46:06;;;;;;;8.82;2.70;;;14.00;49.20;;;;;;6186257;22;89631;-77
2023/04/26 09:48:34;;;;;;;11.15;2.40;;;14.30;51.80;;;;;;6185737;22;87482;-78
2023/04/26 09:51:03;;;;;;;7.72;2.60;;;14.70;46.70;;;;;;6158222;22;90547;-78
2023/04/26 09:53:39;;;;;;;5.55;2.53;;;15.10;47.10;;;;;;6187961;22;88338;-77
2023/04/26 09:56:18;;;;;;;4.18;2.05;;;15.30;46.80;;;;;;6188560;22;90507;-77
2023/04/26 09:58:57;;;;;;;9.38;2.85;;;15.50;44.30;;;;;;6216413;22;87179;-77
2023/04/26 10:05:07;;;;;;;5.00;1.98;;;15.60;50.80;;;;;;6215986;22;91585;-78
2023/04/26 10:07:33;;;;;;;5.72;2.33;;;15.40;50.30;;;;;;6215762;22;88137;-77
2023/04/26 10:10:00;;;;;;;10.60;2.55;;;15.30;47.50;;;;;;6215928;22;88414;-77
2023/04/26 10:12:26;;;;;;;8.65;2.92;;;15.30;50.80;;;;;;6188622;22;93347;-77
2023/04/26 10:14:52;;;;;;;5.18;2.05;;;15.30;50.70;;;;;;6215942;22;88459;-77
2023/04/26 10:30:58;;;;;;;10.65;2.25;;;15.40;44.40;;;;;;6216490;22;86942;-77
2023/04/26 10:33:24;;;;;;;7.65;2.50;;;15.40;42.30;;;;;;6217146;22;87354;-78
2023/04/26 10:36:26;;;;;;;8.57;2.67;;;15.20;43.20;;;;;;6189198;22;90127;-78
2023/04/26 10:39:17;;;;;;;6.15;2.42;;;15.30;46.90;;;;;;6063806;23;89511;-79
2023/04/26 10:41:43;;;;;;;5.22;2.35;;;15.50;45.10;;;;;;6063953;23;89166;-79
2023/04/26 10:44:36;;;;;;;5.00;2.17;;;16.20;44.30;;;;;;6063879;23;87205;-77
2023/04/26 10:53:47;;;;;;;7.00;2.25;;;15.50;42.90;;;;;;6062700;23;87758;-77
2023/04/26 10:56:25;;;;;;;5.45;2.75;;;15.20;40.90;;;;;;6063891;23;87341;-77
2023/04/26 10:59:10;;;;;;;5.53;2.35;;;15.00;41.70;;;;;;6063267;23;87312;-77
2023/04/26 11:01:37;;;;;;;9.50;2.28;;;15.20;47.50;;;;;;6064394;23;89004;-77
2023/04/26 11:04:12;;;;;;;6.15;2.58;;;15.70;41.60;;;;;;6042010;23;91119;-79
2023/04/26 11:06:58;;;;;;;5.03;2.40;;;15.60;40.30;;;;;;6064347;23;88779;-80
2023/04/26 11:09:36;;;;;;;9.30;2.53;;;15.30;42.00;;;;;;6040761;23;88827;-79
2023/04/26 11:14:37;;;;;;;6.70;2.30;;;15.40;42.50;;;;;;6241809;22;86954;-79
2023/04/26 11:17:05;;;;;;;10.77;2.38;;;15.60;44.90;;;;;;6221229;22;87339;-78
2023/04/26 11:19:31;;;;;;;8.55;2.83;;;15.90;42.10;;;;;;6224278;22;87420;-78
2023/04/26 11:22:01;;;;;;;5.03;2.17;;;16.10;46.50;;;;;;6226818;22;88270;-79
2023/04/26 11:27:50;;;;;;;8.13;3.10;;;16.90;43.10;;;;;;6224487;22;87572;-80
2023/04/26 11:30:18;;;;;;;6.28;2.92;;;17.40;41.90;;;;;;6220293;22;86977;-80
2023/04/26 11:32:47;;;;;;;11.30;3.70;;;17.20;40.50;;;;;;6189291;22;91205;-79
2023/04/26 11:35:14;;;;;;;9.73;4.25;;;16.80;42.30;;;;;;6217919;22;88731;-79
2023/04/26 11:37:40;;;;;;;8.10;3.30;;;16.50;40.30;;;;;;6217679;22;87754;-79
2023/04/26 11:40:09;;;;;;;7.40;3.05;;;16.60;44.00;;;;;;6192938;22;89138;-79
2023/04/26 11:42:34;;;;;;;6.03;3.13;;;17.10;45.10;;;;;;6222065;22;88544;-80
2023/04/26 11:45:00;;;;;;;5.40;3.03;;;17.70;44.70;;;;;;6218435;22;88428;-79
2023/04/26 11:47:29;;;;;;;6.00;3.20;;;18.00;39.40;;;;;;6219021;22;87555;-78
2023/04/26 11:49:55;;;;;;;8.63;3.50;;;18.10;44.30;;;;;;6215190;22;87629;-78
2023/04/26 11:52:21;;;;;;;8.85;3.15;;;18.70;45.60;;;;;;6219255;22;88804;-79
2023/04/26 11:54:47;;;;;;;8.80;3.83;;;19.50;42.00;;;;;;6216951;22;88491;-78
2023/04/26 11:57:14;;;;;;;7.28;2.78;;;19.60;39.60;;;;;;6211762;22;87935;-78
2023/04/26 11:59:40;;;;;;;5.75;2.97;;;20.20;42.40;;;;;;6185698;22;89251;-78
2023/04/26 12:02:06;;;;;;;7.88;3.08;;;20.80;39.30;;;;;;6186858;22;91471;-79
2023/04/26 12:04:33;;;;;;;9.10;3.03;;;21.30;39.10;;;;;;6212870;22;88204;-79
2023/04/26 12:06:59;;;;;;;7.18;2.90;;;21.20;39.30;;;;;;6189643;22;87428;-79
2023/04/26 12:09:29;;;;;;;5.93;2.47;;;21.40;38.10;;;;;;6216996;22;87882;-79
2023/04/26 12:12:05;;;;;;;8.60;3.13;;;21.70;38.50;;;;;;6217106;22;88541;-80
2023/04/26 12:14:36;;;;;;;6.40;2.38;;;22.10;37.30;;;;;;6189890;22;88858;-79
2023/04/26 12:33:51;;;;;;;6.90;2.15;;;22.20;34.10;;;;;;6217116;22;87248;-80
2023/04/26 12:36:16;;;;;;;7.10;2.53;;;21.90;35.80;;;;;;6222872;22;88246;-79
2023/04/26 12:38:42;;;;;;;8.80;2.90;;;22.00;39.40;;;;;;6217275;22;88423;-80
2023/04/26 12:41:08;;;;;;;5.90;2.40;;;22.00;37.20;;;;;;6217609;22;87453;-80
2023/04/26 12:50:17;;;;;;;10.50;3.38;;;22.20;38.40;;;;;;6216079;22;87478;-79
2023/04/26 12:52:43;;;;;;;5.90;2.80;;;22.30;34.10;;;;;;6190132;22;87944;-79
2023/04/26 12:55:15;;;;;;;6.45;3.50;;;22.30;33.20;;;;;;6191308;22;90787;-80
2023/04/26 12:57:42;;;;;;;6.85;3.00;;;21.70;32.60;;;;;;6190066;22;89863;-80
2023/04/26 13:00:18;;;;;;;8.48;2.88;;;21.70;34.10;;;;;;6198061;22;89922;-80
2023/04/26 13:02:45;;;;;;;4.78;2.67;;;21.40;33.80;;;;;;6192483;22;87236;-80
2023/04/26 13:05:13;;;;;;;7.97;2.95;;;20.90;35.00;;;;;;6220354;22;87153;-80
2023/04/26 13:07:41;;;;;;;6.47;2.80;;;21.00;32.60;;;;;;6219518;22;88315;-80
2023/04/26 13:10:09;;;;;;;9.52;3.17;;;20.70;37.30;;;;;;6194071;22;88802;-79
2023/04/26 13:12:35;;;;;;;8.00;3.30;;;21.10;35.40;;;;;;6191953;22;87603;-80
2023/04/26 13:15:01;;;;;;;6.68;3.03;;;21.40;36.60;;;;;;6193300;22;90145;-80
2023/04/26 13:17:36;;;;;;;7.00;3.17;;;21.40;31.60;;;;;;6192781;22;91932;-80
2023/04/26 13:20:06;;;;;;;8.48;2.95;;;21.30;32.10;;;;;;6221372;22;89084;-80
2023/04/26 13:22:32;;;;;;;13.43;3.22;;;21.60;32.60;;;;;;6194400;22;87109;-80
2023/04/26 13:24:58;;;;;;;15.27;3.00;;;21.80;34.80;;;;;;6221546;22;87358;-80
2023/04/26 13:27:23;;;;;;;5.20;2.95;;;22.10;32.60;;;;;;6218559;22;88426;-80
2023/04/26 13:29:50;;;;;;;14.43;3.40;;;21.20;32.70;;;;;;6220342;22;88063;-80
2023/04/26 13:32:16;;;;;;;8.57;2.97;;;21.40;33.00;;;;;;6191214;22;87616;-80
2023/04/26 13:34:44;;;;;;;7.85;3.33;;;21.00;32.10;;;;;;6220513;22;86340;-80
2023/04/26 13:37:16;;;;;;;15.48;3.90;;;20.90;35.90;;;;;;6194248;22;91282;-80
2023/04/26 13:39:42;;;;;;;12.07;4.03;;;21.00;33.00;;;;;;6191872;22;90068;-80
2023/04/26 13:42:07;;;;;;;6.28;2.92;;;20.80;32.00;;;;;;6221204;22;88596;-80
2023/04/26 13:44:34;;;;;;;7.00;3.20;;;21.20;33.70;;;;;;6218532;22;87692;-78
2023/04/26 13:46:59;;;;;;;7.63;3.58;;;21.40;31.70;;;;;;6215881;22;88652;-78
2023/04/26 13:49:25;;;;;;;5.10;2.50;;;21.10;31.80;;;;;;6216491;22;87704;-78
2023/04/26 13:51:54;;;;;;;6.07;2.70;;;21.10;32.20;;;;;;6189181;22;87404;-78
2023/04/26 13:54:24;;;;;;;5.55;2.95;;;21.00;35.00;;;;;;6217127;22;87495;-78
2023/04/26 13:56:51;;;;;;;7.70;2.95;;;21.60;32.10;;;;;;6190024;22;89193;-77
2023/04/26 13:59:16;;;;;;;12.73;3.13;;;21.80;35.00;;;;;;6218023;22;89251;-78
2023/04/26 14:01:43;;;;;;;7.90;3.05;;;22.40;34.50;;;;;;6217069;22;87565;-79
2023/04/26 14:04:09;;;;;;;6.78;3.25;;;22.80;31.10;;;;;;6218742;22;87444;-77
2023/04/26 14:06:35;;;;;;;9.00;3.25;;;22.60;32.00;;;;;;6215853;22;89504;-78
2023/04/26 14:09:03;;;;;;;7.82;3.20;;;22.50;31.20;;;;;;6216514;22;89916;-78
2023/04/26 14:11:29;;;;;;;9.90;3.08;;;22.70;32.20;;;;;;6216461;22;88190;-78
2023/04/26 14:13:56;;;;;;;7.35;3.03;;;23.30;31.80;;;;;;6189785;22;90694;-79
2023/04/26 14:16:23;;;;;;;6.22;2.70;;;23.70;30.10;;;;;;6193676;22;90071;-80
2023/04/26 14:18:48;;;;;;;9.43;3.33;;;23.10;29.90;;;;;;6193953;22;89618;-80
2023/04/26 14:24:39;;;;;;;5.30;2.60;;;23.30;31.50;;;;;;6225834;22;86309;-80
2023/04/26 14:27:05;;;;;;;8.77;3.25;;;22.70;30.90;;;;;;6224432;22;88198;-79
2023/04/26 14:29:31;;;;;;;4.65;3.08;;;22.50;30.70;;;;;;6197535;22;89885;-80
2023/04/26 14:31:56;;;;;;;9.20;3.60;;;22.30;30.10;;;;;;6197088;22;87880;-80
2023/04/26 14:34:22;;;;;;;6.20;2.95;;;21.60;34.10;;;;;;6200665;22;89143;-80
2023/04/26 14:50:26;;;;;;;8.27;3.60;;;22.50;29.30;;;;;;6124142;22;87093;-78
2023/04/26 14:52:52;;;;;;;4.82;3.10;;;21.70;30.00;;;;;;6130187;22;87821;-80
2023/04/26 14:55:18;;;;;;;7.28;3.63;;;21.30;30.00;;;;;;6128693;23;87378;-77
2023/04/26 14:57:44;;;;;;;8.98;3.20;;;20.60;30.50;;;;;;6065449;23;89864;-77
2023/04/26 15:00:14;;;;;;;8.20;3.33;;;20.10;32.00;;;;;;6039182;23;92224;-80
2023/04/26 15:02:45;;;;;;;7.15;3.47;;;20.30;32.40;;;;;;6054519;23;90528;-80
2023/04/26 15:05:12;;;;;;;8.00;3.22;;;20.50;31.70;;;;;;6073902;23;87329;-80
2023/04/26 15:07:39;;;;;;;5.72;3.10;;;20.90;34.30;;;;;;6100973;22;90524;-80
2023/04/26 15:10:07;;;;;;;5.30;3.70;;;21.40;30.50;;;;;;6139872;22;89893;-80
2023/04/26 15:12:33;;;;;;;11.90;3.25;;;21.80;30.00;;;;;;6166329;22;88468;-80
2023/04/26 15:14:59;;;;;;;5.05;3.20;;;21.80;30.00;;;;;;6166888;22;87260;-80
2023/04/26 15:17:26;;;;;;;6.13;3.03;;;22.60;29.90;;;;;;6139130;22;88834;-80
2023/04/26 15:19:51;;;;;;;7.65;3.33;;;23.10;28.90;;;;;;6163210;22;87458;-80
2023/04/26 15:22:17;;;;;;;10.75;3.40;;;23.10;28.90;;;;;;6158112;22;87655;-80
2023/04/26 15:24:43;;;;;;;4.93;3.10;;;23.40;28.20;;;;;;6157559;22;88492;-80
2023/04/26 15:27:09;;;;;;;6.70;3.60;;;23.40;32.00;;;;;;6131457;22;88159;-80
2023/04/26 15:29:35;;;;;;;9.10;2.90;;;23.30;30.00;;;;;;6184892;22;89811;-80
2023/04/26 15:32:07;;;;;;;5.28;2.80;;;23.40;30.60;;;;;;6191439;22;91401;-80
2023/04/26 15:34:39;;;;;;;5.82;2.75;;;23.20;32.10;;;;;;6218582;22;87402;-80
2023/04/26 15:37:05;;;;;;;6.65;3.03;;;23.40;32.10;;;;;;6219108;22;87480;-80
2023/04/26 15:39:30;;;;;;;5.03;3.20;;;23.60;29.30;;;;;;6218014;22;87651;-80
2023/04/26 15:41:56;;;;;;;7.72;3.78;;;22.70;29.80;;;;;;6219944;22;86761;-80
2023/04/26 15:44:22;;;;;;;7.40;3.15;;;21.40;30.00;;;;;;6192655;22;87352;-80
2023/04/26 15:46:48;;;;;;;7.68;3.00;;;20.70;36.20;;;;;;6220304;22;87692;-80
2023/04/26 15:49:13;;;;;;;8.25;3.10;;;20.60;35.20;;;;;;6221063;22;88298;-80
2023/04/26 15:51:39;;;;;;;9.98;3.60;;;20.60;32.60;;;;;;6160550;22;90110;-80
2023/04/26 16:00:48;;;;;;;8.32;3.90;;;19.90;36.80;;;;;;6153642;22;87876;-79
2023/04/26 16:03:13;;;;;;;8.52;3.10;;;20.70;34.90;;;;;;6128059;22;91192;-80
2023/04/26 16:05:39;;;;;;;6.22;3.28;;;21.10;30.30;;;;;;6152711;22;87389;-79
2023/04/26 16:08:05;;;;;;;5.30;2.88;;;21.60;31.60;;;;;;6152931;22;87808;-79
2023/04/26 16:10:31;;;;;;;7.05;3.40;;;22.20;33.30;;;;;;6153142;22;87556;-78
2023/04/26 16:12:57;;;;;;;7.18;3.30;;;23.20;31.80;;;;;;6152094;22;88439;-79
2023/04/26 16:15:23;;;;;;;5.70;3.15;;;24.30;30.10;;;;;;6151831;22;88793;-79